sensor_id;sensor_type;location;lat;lon;timestamp;pressure;altitude;pressure_sealevel;temperature;humidity
5996;BME280;3026;53.612;7.278;2023-02-12T00:01:12;103585.88;;;7.38;100.00
5996;BME280;3026;53.612;7.278;2023-02-12T00:03:39;103585.09;;;7.36;100.00
5996;BME280;3026;53.612;7.278;2023-02-12T00:06:08;103586.06;;;7.35;100.00
5996;BME280;3026;53.612;7.278;2023-02-12T00:08:35;103581.59;;;7.34;100.00
5996;BME280;3026;53.612;7.278;2023-02-12T00:11:07;103580.63;;;7.35;100.00
5996;BME280;3026;53.612;7.278;2023-02-12T00:13:35;103591.50;;;7.35;100.00
5996;BME280;3026;53.612;7.278;2023-02-12T00:16:09;103600.59;;;7.34;100.00
5996;BME280;3026;53.612;7.278;2023-02-12T00:18:37;103593.50;;;7.31;100.00
5996;BME280;3026;53.612;7.278;2023-02-12T00:21:06;103590.06;;;7.28;100.00
5996;BME280;3026;53.612;7.278;2023-02-12T00:23:34;103598.47;;;7.23;100.00
5996;BME280;3026;53.612;7.278;2023-02-12T00:26:05;103601.88;;;7.27;100.00
5996;BME280;3026;53.612;7.278;2023-02-12T00:28:34;103602.84;;;7.26;100.00
5996;BME280;3026;53.612;7.278;2023-02-12T00:31:09;103594.00;;;7.22;100.00
5996;BME280;3026;53.612;7.278;2023-02-12T00:33:40;103594.97;;;7.21;100.00
5996;BME280;3026;53.612;7.278;2023-02-12T00:36:13;103587.94;;;7.17;100.00
5996;BME280;3026;53.612;7.278;2023-02-12T00:38:46;103592.34;;;7.20;100.00
5996;BME280;3026;53.612;7.278;2023-02-12T00:41:14;103590.66;;;7.17;100.00
5996;BME280;3026;53.612;7.278;2023-02-12T00:43:41;103586.38;;;7.13;100.00
5996;BME280;3026;53.612;7.278;2023-02-12T00:46:11;103594.41;;;7.15;100.00
5996;BME280;3026;53.612;7.278;2023-02-12T00:48:38;103588.19;;;7.13;100.00
5996;BME280;3026;53.612;7.278;2023-02-12T00:51:05;103596.16;;;7.16;100.00
5996;BME280;3026;53.612;7.278;2023-02-12T00:53:33;103599.69;;;7.18;100.00
5996;BME280;3026;53.612;7.278;2023-02-12T00:56:03;103593.44;;;7.16;100.00
5996;BME280;3026;53.612;7.278;2023-02-12T00:58:31;103593.53;;;7.14;100.00
5996;BME280;3026;53.612;7.278;2023-02-12T01:01:00;103601.44;;;7.19;100.00
5996;BME280;3026;53.612;7.278;2023-02-12T01:03:29;103601.44;;;7.19;100.00
5996;BME280;3026;53.612;7.278;2023-02-12T01:05:57;103585.41;;;7.14;100.00
5996;BME280;3026;53.612;7.278;2023-02-12T01:08:25;103588.13;;;7.14;100.00
5996;BME280;3026;53.612;7.278;2023-02-12T01:10:57;103590.75;;;7.16;100.00
5996;BME280;3026;53.612;7.278;2023-02-12T01:13:25;103600.56;;;7.18;100.00
5996;BME280;3026;53.612;7.278;2023-02-12T01:16:04;103601.50;;;7.17;100.00
5996;BME280;3026;53.612;7.278;2023-02-12T01:18:34;103590.75;;;7.16;100.00
5996;BME280;3026;53.612;7.278;2023-02-12T01:21:07;103591.56;;;7.18;100.00
5996;BME280;3026;53.612;7.278;2023-02-12T01:23:35;103596.03;;;7.19;100.00
5996;BME280;3026;53.612;7.278;2023-02-12T01:26:02;103596.81;;;7.21;100.00
5996;BME280;3026;53.612;7.278;2023-02-12T01:28:29;103593.22;;;7.20;100.00
5996;BME280;3026;53.612;7.278;2023-02-12T01:30:56;103592.34;;;7.20;100.00
5996;BME280;3026;53.612;7.278;2023-02-12T01:33:25;103600.50;;;7.20;100.00
5996;BME280;3026;53.612;7.278;2023-02-12T01:35:57;103608.63;;;7.20;100.00
5996;BME280;3026;53.612;7.278;2023-02-12T01:38:25;103605.81;;;7.21;100.00
5996;BME280;3026;53.612;7.278;2023-02-12T01:40:53;103609.16;;;7.26;100.00
5996;BME280;3026;53.612;7.278;2023-02-12T01:43:28;103605.75;;;7.23;100.00
5996;BME280;3026;53.612;7.278;2023-02-12T01:45:59;103598.47;;;7.23;100.00
5996;BME280;3026;53.612;7.278;2023-02-12T01:48:28;103606.53;;;7.25;100.00
5996;BME280;3026;53.612;7.278;2023-02-12T01:51:01;103606.34;;;7.28;100.00
5996;BME280;3026;53.612;7.278;2023-02-12T01:53:31;103595.50;;;7.28;100.00
5996;BME280;3026;53.612;7.278;2023-02-12T01:56:07;103593.41;;;7.33;100.00
5996;BME280;3026;53.612;7.278;2023-02-12T01:58:40;103589.91;;;7.31;100.00
5996;BME280;3026;53.612;7.278;2023-02-12T02:01:12;103596.22;;;7.31;100.00
5996;BME280;3026;53.612;7.278;2023-02-12T02:03:44;103595.00;;;7.37;100.00
5996;BME280;3026;53.612;7.278;2023-02-12T02:06:23;103589.75;;;7.34;100.00
5996;BME280;3026;53.612;7.278;2023-02-12T02:08:58;103596.91;;;7.35;100.00
5996;BME280;3026;53.612;7.278;2023-02-12T02:11:27;103588.78;;;7.35;100.00
5996;BME280;3026;53.612;7.278;2023-02-12T02:14:12;103588.00;;;7.33;100.00
5996;BME280;3026;53.612;7.278;2023-02-12T02:17:16;103596.91;;;7.35;100.00
5996;BME280;3026;53.612;7.278;2023-02-12T02:22:42;103603.91;;;7.39;100.00
5996;BME280;3026;53.612;7.278;2023-02-12T02:25:52;103596.91;;;7.35;100.00
5996;BME280;3026;53.612;7.278;2023-02-12T02:31:25;103597.72;;;7.37;100.00
5996;BME280;3026;53.612;7.278;2023-02-12T02:34:00;103601.13;;;7.41;100.00
5996;BME280;3026;53.612;7.278;2023-02-12T02:36:35;103590.53;;;7.36;100.00
5996;BME280;3026;53.612;7.278;2023-02-12T02:39:12;103582.38;;;7.36;100.00
5996;BME280;3026;53.612;7.278;2023-02-12T02:41:47;103587.81;;;7.36;100.00
5996;BME280;3026;53.612;7.278;2023-02-12T02:44:22;103584.13;;;7.37;100.00
5996;BME280;3026;53.612;7.278;2023-02-12T02:46:58;103574.41;;;7.33;100.00
5996;BME280;3026;53.612;7.278;2023-02-12T02:49:34;103573.44;;;7.34;100.00
5996;BME280;3026;53.612;7.278;2023-02-12T02:52:11;103578.19;;;7.30;100.00
5996;BME280;3026;53.612;7.278;2023-02-12T02:54:48;103586.25;;;7.32;100.00
5996;BME280;3026;53.612;7.278;2023-02-12T02:57:24;103582.75;;;7.30;100.00
5996;BME280;3026;53.612;7.278;2023-02-12T03:00:08;103580.97;;;7.29;100.00
5996;BME280;3026;53.612;7.278;2023-02-12T03:02:46;103584.81;;;7.25;100.00
5996;BME280;3026;53.612;7.278;2023-02-12T03:05:18;103584.81;;;7.25;100.00
5996;BME280;3026;53.612;7.278;2023-02-12T03:07:56;103592.34;;;7.20;100.00
5996;BME280;3026;53.612;7.278;2023-02-12T03:10:31;103582.50;;;7.17;100.00
5996;BME280;3026;53.612;7.278;2023-02-12T03:13:04;103581.72;;;7.15;100.00
5996;BME280;3026;53.612;7.278;2023-02-12T03:15:36;103589.88;;;7.15;100.00
5996;BME280;3026;53.612;7.278;2023-02-12T03:18:12;103587.25;;;7.14;100.00
5996;BME280;3026;53.612;7.278;2023-02-12T03:20:44;103582.69;;;7.14;100.00
5996;BME280;3026;53.612;7.278;2023-02-12T03:23:17;103591.78;;;7.13;100.00
5996;BME280;3026;53.612;7.278;2023-02-12T03:25:51;103596.34;;;7.13;100.00
5996;BME280;3026;53.612;7.278;2023-02-12T03:28:27;103596.69;;;7.07;100.00
5996;BME280;3026;53.612;7.278;2023-02-12T03:31:02;103599.47;;;7.05;100.00
5996;BME280;3026;53.612;7.278;2023-02-12T03:33:41;103600.50;;;7.02;100.00
5996;BME280;3026;53.612;7.278;2023-02-12T03:36:33;103598.94;;;6.98;100.00
5996;BME280;3026;53.612;7.278;2023-02-12T03:39:07;103598.94;;;6.98;100.00
5996;BME280;3026;53.612;7.278;2023-02-12T03:41:41;103613.28;;;7.00;100.00
5996;BME280;3026;53.612;7.278;2023-02-12T03:44:16;103598.22;;;6.95;100.00
5996;BME280;3026;53.612;7.278;2023-02-12T03:46:50;103603.66;;;6.95;100.00
5996;BME280;3026;53.612;7.278;2023-02-12T03:49:23;103606.75;;;6.87;100.00
5996;BME280;3026;53.612;7.278;2023-02-12T03:51:55;103603.25;;;6.85;100.00
5996;BME280;3026;53.612;7.278;2023-02-12T03:54:23;103603.34;;;6.84;100.00
5996;BME280;3026;53.612;7.278;2023-02-12T03:56:53;103608.69;;;6.85;100.00
5996;BME280;3026;53.612;7.278;2023-02-12T03:59:24;103599.00;;;6.80;100.00
5996;BME280;3026;53.612;7.278;2023-02-12T04:01:53;103600.06;;;6.77;100.00
5996;BME280;3026;53.612;7.278;2023-02-12T04:04:22;103607.16;;;6.80;100.00
5996;BME280;3026;53.612;7.278;2023-02-12T04:06:51;103594.94;;;6.71;100.00
5996;BME280;3026;53.612;7.278;2023-02-12T04:09:21;103602.28;;;6.69;100.00
5996;BME280;3026;53.612;7.278;2023-02-12T04:12:01;103595.28;;;6.65;100.00
5996;BME280;3026;53.612;7.278;2023-02-12T04:14:40;103602.63;;;6.63;100.00
5996;BME280;3026;53.612;7.278;2023-02-12T04:17:14;103611.72;;;6.62;100.00
5996;BME280;3026;53.612;7.278;2023-02-12T04:19:58;103604.69;;;6.58;100.00
5996;BME280;3026;53.612;7.278;2023-02-12T04:22:35;103598.72;;;6.51;100.00
5996;BME280;3026;53.612;7.278;2023-02-12T04:25:20;103596.97;;;6.50;100.00
5996;BME280;3026;53.612;7.278;2023-02-12T04:27:51;103597.84;;;6.51;100.00
5996;BME280;3026;53.612;7.278;2023-02-12T04:30:26;103612.19;;;6.53;100.00
5996;BME280;3026;53.612;7.278;2023-02-12T04:32:58;103603.25;;;6.51;100.00
5996;BME280;3026;53.612;7.278;2023-02-12T04:35:30;103616.56;;;6.55;100.00
5996;BME280;3026;53.612;7.278;2023-02-12T04:38:01;103620.94;;;6.58;100.00
5996;BME280;3026;53.612;7.278;2023-02-12T04:40:31;103618.25;;;6.58;100.00
5996;BME280;3026;53.612;7.278;2023-02-12T04:42:58;103617.16;;;6.62;100.00
5996;BME280;3026;53.612;7.278;2023-02-12T04:45:29;103617.28;;;6.59;100.00
5996;BME280;3026;53.612;7.278;2023-02-12T04:47:58;103621.53;;;6.64;100.00
5996;BME280;3026;53.612;7.278;2023-02-12T04:50:25;103615.22;;;6.64;100.00
5996;BME280;3026;53.612;7.278;2023-02-12T04:52:53;103609.81;;;6.64;100.00
5996;BME280;3026;53.612;7.278;2023-02-12T04:55:21;103615.06;;;6.67;100.00
5996;BME280;3026;53.612;7.278;2023-02-12T04:57:49;103614.88;;;6.70;100.00
5996;BME280;3026;53.612;7.278;2023-02-12T05:00:17;103604.22;;;6.67;100.00
5996;BME280;3026;53.612;7.278;2023-02-12T05:02:44;103606.13;;;6.65;100.00
5996;BME280;3026;53.612;7.278;2023-02-12T05:05:12;103605.97;;;6.68;100.00
5996;BME280;3026;53.612;7.278;2023-02-12T05:07:39;103606.84;;;6.68;100.00
5996;BME280;3026;53.612;7.278;2023-02-12T05:10:07;103604.03;;;6.70;100.00
5996;BME280;3026;53.612;7.278;2023-02-12T05:12:34;103614.59;;;6.76;100.00
5996;BME280;3026;53.612;7.278;2023-02-12T05:15:04;103611.78;;;6.78;100.00
5996;BME280;3026;53.612;7.278;2023-02-12T05:17:31;103612.84;;;6.75;100.00
5996;BME280;3026;53.612;7.278;2023-02-12T05:19:58;103604.88;;;6.72;100.00
5996;BME280;3026;53.612;7.278;2023-02-12T05:22:25;103620.09;;;6.75;100.00
5996;BME280;3026;53.612;7.278;2023-02-12T05:24:52;103622.63;;;6.78;100.00
5996;BME280;3026;53.612;7.278;2023-02-12T05:27:19;103618.09;;;6.78;100.00
5996;BME280;3026;53.612;7.278;2023-02-12T05:29:46;103621.59;;;6.80;100.00
5996;BME280;3026;53.612;7.278;2023-02-12T05:32:15;103622.56;;;6.79;100.00
5996;BME280;3026;53.612;7.278;2023-02-12T05:34:42;103630.69;;;6.79;100.00
5996;BME280;3026;53.612;7.278;2023-02-12T05:37:09;103617.38;;;6.75;100.00
5996;BME280;3026;53.612;7.278;2023-02-12T05:39:36;103627.19;;;6.77;100.00
5996;BME280;3026;53.612;7.278;2023-02-12T05:42:03;103626.47;;;6.73;100.00
5996;BME280;3026;53.612;7.278;2023-02-12T05:44:30;103634.53;;;6.75;100.00
5996;BME280;3026;53.612;7.278;2023-02-12T05:46:57;103625.75;;;6.70;100.00
5996;BME280;3026;53.612;7.278;2023-02-12T05:49:26;103633.06;;;6.68;100.00
5996;BME280;3026;53.612;7.278;2023-02-12T05:51:53;103636.03;;;6.63;100.00
5996;BME280;3026;53.612;7.278;2023-02-12T05:54:20;103629.00;;;6.59;100.00
5996;BME280;3026;53.612;7.278;2023-02-12T05:56:48;103623.75;;;6.56;100.00
5996;BME280;3026;53.612;7.278;2023-02-12T05:59:17;103633.53;;;6.59;100.00
5996;BME280;3026;53.612;7.278;2023-02-12T06:01:45;103638.19;;;6.57;100.00
5996;BME280;3026;53.612;7.278;2023-02-12T06:04:15;103640.00;;;6.56;100.00
5996;BME280;3026;53.612;7.278;2023-02-12T06:06:44;103622.47;;;6.46;100.00
5996;BME280;3026;53.612;7.278;2023-02-12T06:09:12;103628.03;;;6.43;100.00
5996;BME280;3026;53.612;7.278;2023-02-12T06:11:40;103639.75;;;6.43;100.00
5996;BME280;3026;53.612;7.278;2023-02-12T06:14:10;103633.63;;;6.40;100.00
5996;BME280;3026;53.612;7.278;2023-02-12T06:16:38;103645.19;;;6.43;100.00
5996;BME280;3026;53.612;7.278;2023-02-12T06:19:05;103648.06;;;6.40;100.00
5996;BME280;3026;53.612;7.278;2023-02-12T06:21:33;103651.63;;;6.41;100.00
5996;BME280;3026;53.612;7.278;2023-02-12T06:24:01;103650.94;;;6.37;100.00
5996;BME280;3026;53.612;7.278;2023-02-12T06:26:29;103664.41;;;6.39;100.00
5996;BME280;3026;53.612;7.278;2023-02-12T06:28:56;103657.94;;;6.41;100.00
5996;BME280;3026;53.612;7.278;2023-02-12T06:31:24;103658.22;;;6.35;100.00
5996;BME280;3026;53.612;7.278;2023-02-12T06:33:53;103667.03;;;6.40;100.00
5996;BME280;3026;53.612;7.278;2023-02-12T06:36:21;103674.38;;;6.38;100.00
5996;BME280;3026;53.612;7.278;2023-02-12T06:38:48;103671.72;;;6.37;100.00
5996;BME280;3026;53.612;7.278;2023-02-12T06:41:19;103671.00;;;6.33;100.00
5996;BME280;3026;53.612;7.278;2023-02-12T06:43:47;103672.91;;;6.31;100.00
5996;BME280;3026;53.612;7.278;2023-02-12T06:46:15;103678.16;;;6.34;100.00
5996;BME280;3026;53.612;7.278;2023-02-12T06:48:42;103686.28;;;6.34;100.00
5996;BME280;3026;53.612;7.278;2023-02-12T06:51:13;103677.19;;;6.35;100.00
5996;BME280;3026;53.612;7.278;2023-02-12T06:53:41;103681.81;;;6.33;100.00
5996;BME280;3026;53.612;7.278;2023-02-12T06:56:10;103680.22;;;6.29;100.00
5996;BME280;3026;53.612;7.278;2023-02-12T06:58:41;103688.28;;;6.31;100.00
5996;BME280;3026;53.612;7.278;2023-02-12T07:01:10;103692.81;;;6.30;100.00
5996;BME280;3026;53.612;7.278;2023-02-12T07:03:40;103691.06;;;6.29;100.00
5996;BME280;3026;53.612;7.278;2023-02-12T07:06:07;103693.94;;;6.26;100.00
5996;BME280;3026;53.612;7.278;2023-02-12T07:08:35;103697.53;;;6.27;100.00
5996;BME280;3026;53.612;7.278;2023-02-12T07:11:03;103696.78;;;6.23;100.00
5996;BME280;3026;53.612;7.278;2023-02-12T07:13:31;103700.44;;;6.22;100.00
5996;BME280;3026;53.612;7.278;2023-02-12T07:16:03;103702.34;;;6.20;100.00
5996;BME280;3026;53.612;7.278;2023-02-12T07:18:32;103713.19;;;6.20;100.00
5996;BME280;3026;53.612;7.278;2023-02-12T07:21:03;103716.88;;;6.19;100.00
5996;BME280;3026;53.612;7.278;2023-02-12T07:23:34;103720.22;;;6.24;100.00
5996;BME280;3026;53.612;7.278;2023-02-12T07:26:26;103728.41;;;6.23;100.00
5996;BME280;3026;53.612;7.278;2023-02-12T07:28:53;103720.38;;;6.21;100.00
5996;BME280;3026;53.612;7.278;2023-02-12T07:31:25;103727.53;;;6.22;100.00
5996;BME280;3026;53.612;7.278;2023-02-12T07:33:53;103725.50;;;6.27;100.00
5996;BME280;3026;53.612;7.278;2023-02-12T07:36:21;103734.44;;;6.29;100.00
5996;BME280;3026;53.612;7.278;2023-02-12T07:38:48;103730.94;;;6.27;100.00
5996;BME280;3026;53.612;7.278;2023-02-12T07:41:18;103730.94;;;6.27;100.00
5996;BME280;3026;53.612;7.278;2023-02-12T07:43:46;103737.94;;;6.31;100.00
5996;BME280;3026;53.612;7.278;2023-02-12T07:46:15;103750.53;;;6.32;100.00
5996;BME280;3026;53.612;7.278;2023-02-12T07:48:45;103747.03;;;6.30;100.00
5996;BME280;3026;53.612;7.278;2023-02-12T07:51:14;103740.00;;;6.26;100.00
5996;BME280;3026;53.612;7.278;2023-02-12T07:53:43;103743.38;;;6.31;100.00
5996;BME280;3026;53.612;7.278;2023-02-12T07:56:12;103732.69;;;6.28;100.00
5996;BME280;3026;53.612;7.278;2023-02-12T07:58:41;103739.69;;;6.32;100.00
5996;BME280;3026;53.612;7.278;2023-02-12T08:01:15;103742.25;;;6.35;100.00
5996;BME280;3026;53.612;7.278;2023-02-12T08:03:44;103737.66;;;6.37;100.00
5996;BME280;3026;53.612;7.278;2023-02-12T08:06:15;103753.78;;;6.40;100.00
5996;BME280;3026;53.612;7.278;2023-02-12T08:08:42;103738.53;;;6.38;100.00
5996;BME280;3026;53.612;7.278;2023-02-12T08:11:11;103750.97;;;6.42;100.00
5996;BME280;3026;53.612;7.278;2023-02-12T08:13:39;103735.84;;;6.38;100.00
5996;BME280;3026;53.612;7.278;2023-02-12T08:16:09;103752.00;;;6.39;100.00
5996;BME280;3026;53.612;7.278;2023-02-12T08:18:36;103753.59;;;6.43;100.00
5996;BME280;3026;53.612;7.278;2023-02-12T08:21:06;103753.44;;;6.47;100.00
5996;BME280;3026;53.612;7.278;2023-02-12T08:23:34;103748.03;;;6.47;100.00
5996;BME280;3026;53.612;7.278;2023-02-12T08:26:09;103756.09;;;6.48;100.00
5996;BME280;3026;53.612;7.278;2023-02-12T08:28:39;103764.28;;;6.47;100.00
5996;BME280;3026;53.612;7.278;2023-02-12T08:31:08;103757.00;;;6.49;100.00
5996;BME280;3026;53.612;7.278;2023-02-12T08:33:35;103765.94;;;6.51;100.00
5996;BME280;3026;53.612;7.278;2023-02-12T08:36:14;103759.31;;;6.56;100.00
5996;BME280;3026;53.612;7.278;2023-02-12T08:38:43;103763.69;;;6.59;100.00
5996;BME280;3026;53.612;7.278;2023-02-12T08:41:13;103776.25;;;6.61;100.00
5996;BME280;3026;53.612;7.278;2023-02-12T08:43:41;103761.94;;;6.58;100.00
5996;BME280;3026;53.612;7.278;2023-02-12T08:46:11;103772.50;;;6.64;100.00
5996;BME280;3026;53.612;7.278;2023-02-12T08:48:39;103768.66;;;6.68;100.00
5996;BME280;3026;53.612;7.278;2023-02-12T08:51:08;103770.44;;;6.69;100.00
5996;BME280;3026;53.612;7.278;2023-02-12T08:53:40;103772.19;;;6.70;100.00
5996;BME280;3026;53.612;7.278;2023-02-12T08:56:08;103778.19;;;6.77;100.00
5996;BME280;3026;53.612;7.278;2023-02-12T08:58:36;103769.97;;;6.78;100.00
5996;BME280;3026;53.612;7.278;2023-02-12T09:01:04;103764.38;;;6.81;100.00
5996;BME280;3026;53.612;7.278;2023-02-12T09:03:34;103772.22;;;6.87;100.00
5996;BME280;3026;53.612;7.278;2023-02-12T09:06:02;103766.88;;;6.86;100.00
5996;BME280;3026;53.612;7.278;2023-02-12T09:08:29;103773.75;;;6.93;100.00
5996;BME280;3026;53.612;7.278;2023-02-12T09:10:57;103775.44;;;6.95;100.00
5996;BME280;3026;53.612;7.278;2023-02-12T09:13:25;103778.00;;;6.98;100.00
5996;BME280;3026;53.612;7.278;2023-02-12T09:15:52;103779.41;;;7.06;100.00
5996;BME280;3026;53.612;7.278;2023-02-12T09:18:19;103783.84;;;7.08;100.00
5996;BME280;3026;53.612;7.278;2023-02-12T09:20:46;103781.03;;;7.10;100.00
5996;BME280;3026;53.612;7.278;2023-02-12T09:23:13;103787.88;;;7.17;100.00
5996;BME280;3026;53.612;7.278;2023-02-12T09:25:42;103771.78;;;7.14;100.00
5996;BME280;3026;53.612;7.278;2023-02-12T09:28:13;103785.19;;;7.17;100.00
5996;BME280;3026;53.612;7.278;2023-02-12T09:30:40;103784.09;;;7.21;100.00
5996;BME280;3026;53.612;7.278;2023-02-12T09:33:09;103779.63;;;7.20;100.00
5996;BME280;3026;53.612;7.278;2023-02-12T09:35:37;103783.91;;;7.24;100.00
5996;BME280;3026;53.612;7.278;2023-02-12T09:38:05;103787.44;;;7.26;100.00
5996;BME280;3026;53.612;7.278;2023-02-12T09:40:36;103791.81;;;7.28;100.00
5996;BME280;3026;53.612;7.278;2023-02-12T09:43:15;103779.94;;;7.31;100.00
5996;BME280;3026;53.612;7.278;2023-02-12T09:45:48;103788.88;;;7.33;100.00
5996;BME280;3026;53.612;7.278;2023-02-12T09:48:33;103792.97;;;7.42;100.00
5996;BME280;3026;53.612;7.278;2023-02-12T09:51:04;103790.28;;;7.40;100.00
5996;BME280;3026;53.612;7.278;2023-02-12T09:53:36;103788.41;;;7.42;100.00
5996;BME280;3026;53.612;7.278;2023-02-12T09:56:11;103790.28;;;7.40;100.00
5996;BME280;3026;53.612;7.278;2023-02-12T09:58:45;103792.22;;;7.38;100.00
5996;BME280;3026;53.612;7.278;2023-02-12T10:01:15;103789.41;;;7.40;100.00
5996;BME280;3026;53.612;7.278;2023-02-12T10:03:43;103795.72;;;7.40;100.00
5996;BME280;3026;53.612;7.278;2023-02-12T10:06:13;103806.09;;;7.49;100.00
5996;BME280;3026;53.612;7.278;2023-02-12T10:08:54;103805.81;;;7.55;100.00
5996;BME280;3026;53.612;7.278;2023-02-12T10:11:34;103804.75;;;7.58;100.00
5996;BME280;3026;53.612;7.278;2023-02-12T10:14:29;103806.50;;;7.59;100.00
5996;BME280;3026;53.612;7.278;2023-02-12T10:17:02;103805.81;;;7.55;100.00
5996;BME280;3026;53.612;7.278;2023-02-12T10:19:48;103805.63;;;7.58;100.00
5996;BME280;3026;53.612;7.278;2023-02-12T10:22:27;103803.72;;;7.60;100.00
5996;BME280;3026;53.612;7.278;2023-02-12T10:25:08;103803.53;;;7.64;100.00
5996;BME280;3026;53.612;7.278;2023-02-12T10:27:48;103808.66;;;7.70;100.00
5996;BME280;3026;53.612;7.278;2023-02-12T10:30:20;103804.00;;;7.72;100.00
5996;BME280;3026;53.612;7.278;2023-02-12T10:32:52;103805.69;;;7.74;100.00
5996;BME280;3026;53.612;7.278;2023-02-12T10:35:22;103805.75;;;7.73;100.00
5996;BME280;3026;53.612;7.278;2023-02-12T10:37:54;103821.50;;;7.83;100.00
5996;BME280;3026;53.612;7.278;2023-02-12T10:40:25;103811.50;;;7.84;100.00
5996;BME280;3026;53.612;7.278;2023-02-12T10:42:55;103824.00;;;7.88;100.00
5996;BME280;3026;53.612;7.278;2023-02-12T10:45:29;103810.53;;;7.85;100.00
5996;BME280;3026;53.612;7.278;2023-02-12T10:48:08;103819.47;;;7.87;100.00
5996;BME280;3026;53.612;7.278;2023-02-12T10:50:55;103818.56;;;7.88;100.00
5996;BME280;3026;53.612;7.278;2023-02-12T10:53:26;103810.22;;;7.91;100.00
5996;BME280;3026;53.612;7.278;2023-02-12T10:56:13;103820.41;;;7.87;100.00
5996;BME280;3026;53.612;7.278;2023-02-12T10:58:52;103817.72;;;7.86;100.00
5996;BME280;3026;53.612;7.278;2023-02-12T11:01:24;103817.81;;;7.84;100.00
5996;BME280;3026;53.612;7.278;2023-02-12T11:03:54;103822.19;;;7.87;100.00
5996;BME280;3026;53.612;7.278;2023-02-12T11:06:24;103815.19;;;7.83;100.00
5996;BME280;3026;53.612;7.278;2023-02-12T11:08:53;103830.34;;;7.87;100.00
5996;BME280;3026;53.612;7.278;2023-02-12T11:11:22;103827.50;;;7.90;100.00
5996;BME280;3026;53.612;7.278;2023-02-12T11:13:55;103814.69;;;7.92;100.00
5996;BME280;3026;53.612;7.278;2023-02-12T11:16:30;103814.53;;;7.95;100.00
5996;BME280;3026;53.612;7.278;2023-02-12T11:19:03;103822.59;;;7.97;100.00
5996;BME280;3026;53.612;7.278;2023-02-12T11:21:33;103812.59;;;7.97;100.00
5996;BME280;3026;53.612;7.278;2023-02-12T11:24:20;103821.38;;;8.02;100.00
5996;BME280;3026;53.612;7.278;2023-02-12T11:26:47;103817.72;;;8.03;100.00
5996;BME280;3026;53.612;7.278;2023-02-12T11:29:20;103818.50;;;8.05;100.00
5996;BME280;3026;53.612;7.278;2023-02-12T11:32:02;103815.47;;;8.11;100.00
5996;BME280;3026;53.612;7.278;2023-02-12T11:34:33;103809.66;;;8.17;100.00
5996;BME280;3026;53.612;7.278;2023-02-12T11:37:01;103812.28;;;8.19;100.00
5996;BME280;3026;53.612;7.278;2023-02-12T11:39:32;103811.41;;;8.18;100.00
5996;BME280;3026;53.612;7.278;2023-02-12T11:42:05;103809.50;;;8.20;100.00
5996;BME280;3026;53.612;7.278;2023-02-12T11:45:03;103819.16;;;8.26;100.00
5996;BME280;3026;53.612;7.278;2023-02-12T11:47:35;103815.38;;;8.29;100.00
5996;BME280;3026;53.612;7.278;2023-02-12T11:50:20;103800.03;;;8.28;100.00
5996;BME280;3026;53.612;7.278;2023-02-12T11:56:27;103797.16;;;8.31;100.00
5996;BME280;3026;53.612;7.278;2023-02-12T12:06:15;103794.66;;;8.43;100.00
5996;BME280;3026;53.612;7.278;2023-02-12T12:08:56;103786.41;;;8.45;100.00
5996;BME280;3026;53.612;7.278;2023-02-12T12:11:31;103786.06;;;8.51;100.00
5996;BME280;3026;53.612;7.278;2023-02-12T12:14:04;103783.94;;;8.56;100.00
5996;BME280;3026;53.612;7.278;2023-02-12T12:16:44;103787.47;;;8.58;100.00
5996;BME280;3026;53.612;7.278;2023-02-12T12:19:37;103789.63;;;8.67;100.00
5996;BME280;3026;53.612;7.278;2023-02-12T12:22:43;103782.28;;;8.69;100.00
5996;BME280;3026;53.612;7.278;2023-02-12T12:25:22;103786.78;;;8.70;100.00
5996;BME280;3026;53.612;7.278;2023-02-12T12:28:04;103773.94;;;8.72;100.00
5996;BME280;3026;53.612;7.278;2023-02-12T12:30:53;103775.50;;;8.76;100.00
5996;BME280;3026;53.612;7.278;2023-02-12T12:33:34;103782.69;;;8.77;100.00
5996;BME280;3026;53.612;7.278;2023-02-12T12:39:18;103780.16;;;8.74;100.00
5996;BME280;3026;53.612;7.278;2023-02-12T12:42:17;103786.59;;;8.73;100.00
5996;BME280;3026;53.612;7.278;2023-02-12T12:45:02;103778.22;;;8.76;100.00
5996;BME280;3026;53.612;7.278;2023-02-12T12:47:36;103768.13;;;8.78;100.00
5996;BME280;3026;53.612;7.278;2023-02-12T12:53:21;103766.38;;;8.77;100.00
5996;BME280;3026;53.612;7.278;2023-02-12T12:56:34;103766.22;;;8.81;100.00
5996;BME280;3026;53.612;7.278;2023-02-12T12:59:26;103756.03;;;8.84;100.00
5996;BME280;3026;53.612;7.278;2023-02-12T13:05:19;103762.59;;;8.96;100.00
5996;BME280;3026;53.612;7.278;2023-02-12T13:08:01;103758.91;;;8.97;100.00
5996;BME280;3026;53.612;7.278;2023-02-12T13:11:01;103755.81;;;9.03;100.00
5996;BME280;3026;53.612;7.278;2023-02-12T13:30:45;103740.53;;;9.00;100.00
5996;BME280;3026;53.612;7.278;2023-02-12T13:33:21;103735.19;;;8.99;100.00
5996;BME280;3026;53.612;7.278;2023-02-12T13:36:05;103737.91;;;8.99;100.00
5996;BME280;3026;53.612;7.278;2023-02-12T13:39:14;103742.38;;;9.00;100.00
5996;BME280;3026;53.612;7.278;2023-02-12T13:42:42;103732.44;;;8.99;100.00
5996;BME280;3026;53.612;7.278;2023-02-12T13:46:06;103732.44;;;8.99;100.00
5996;BME280;3026;53.612;7.278;2023-02-12T13:49:09;103727.63;;;9.04;100.00
5996;BME280;3026;53.612;7.278;2023-02-12T13:52:52;103726.66;;;9.05;100.00
5996;BME280;3026;53.612;7.278;2023-02-12T13:55:59;103721.81;;;9.10;100.00
5996;BME280;3026;53.612;7.278;2023-02-12T13:59:13;103728.13;;;9.11;100.00
5996;BME280;3026;53.612;7.278;2023-02-12T14:05:38;103729.09;;;9.10;100.00
5996;BME280;3026;53.612;7.278;2023-02-12T14:08:33;103724.53;;;9.10;100.00
5996;BME280;3026;53.612;7.278;2023-02-12T14:11:30;103726.47;;;9.08;100.00
5996;BME280;3026;53.612;7.278;2023-02-12T14:14:30;103727.34;;;9.09;100.00
5996;BME280;3026;53.612;7.278;2023-02-12T14:17:50;103726.28;;;9.11;100.00
5996;BME280;3026;53.612;7.278;2023-02-12T14:26:57;103725.72;;;9.20;100.00
5996;BME280;3026;53.612;7.278;2023-02-12T14:30:35;103731.75;;;9.25;100.00
5996;BME280;3026;53.612;7.278;2023-02-12T14:33:25;103721.66;;;9.27;100.00
5996;BME280;3026;53.612;7.278;2023-02-12T14:36:19;103721.81;;;9.24;100.00
5996;BME280;3026;53.612;7.278;2023-02-12T14:39:28;103716.38;;;9.24;100.00
5996;BME280;3026;53.612;7.278;2023-02-12T14:48:55;103724.16;;;9.16;100.00